CheckWX is a tool to help pilots better visualize weather data.  It is not intended as a substitute for an official pre-flight weather briefing.

02:20:08 UTC

KSTL METAR
St Louis Lambert International Airport
St Louis, Missouri, USA
Current

29 mins ago

KSTL 210151Z 35007KT 10SM CLR M04/M12 A3072 RMK AO2 SLP418 T10441122
Observed
Feb-21 @ 01:51 UTC
Wind
  • 350° at 7 KTS
Visibility
10 SM
Flight Rules
VFR
Cloud Levels
  • Clear skies
Temperature
-4°C / 25°F
Dewpoint
-12°C / 10°F
Humidity
54%
Altimeter
30.72" Hg
Pressure
1040.32 hPa
Previous

1 hour ago

KSTL 210051Z 35008KT 10SM CLR M03/M13 A3071 RMK AO2 SLP413 T10331128
Observed
Feb-21 @ 00:51 UTC
Wind
  • 350° at 8 KTS
Visibility
10 SM
Flight Rules
VFR
Cloud Levels
  • Clear skies
Temperature
-3°C / 27°F
Dewpoint
-13°C / 9°F
Humidity
46%
Altimeter
30.71" Hg
Pressure
1039.92 hPa
Previous

2 hours ago

KSTL 202351Z 34009KT 10SM CLR M03/M13 A3069 RMK AO2 SLP407 T10281133 10000 21028 53007
Observed
Feb-20 @ 23:51 UTC
Wind
  • 340° at 9 KTS
Visibility
10 SM
Flight Rules
VFR
Cloud Levels
  • Clear skies
Temperature
-3°C / 27°F
Dewpoint
-13°C / 9°F
Humidity
46%
Altimeter
30.69" Hg
Pressure
1039.32 hPa